createdAt,value
2017-09-06T00:00:32.359Z,12.10
2017-09-06T00:02:58.635Z,12.93
2017-09-06T00:05:24.902Z,12.80
2017-09-06T00:07:51.194Z,13.03
2017-09-06T00:10:17.460Z,13.20
2017-09-06T00:12:43.763Z,13.13
2017-09-06T00:15:10.015Z,12.63
2017-09-06T00:17:36.295Z,13.53
2017-09-06T00:20:02.563Z,12.73
2017-09-06T00:22:28.835Z,14.53
2017-09-06T00:24:55.100Z,13.03
2017-09-06T00:27:21.378Z,14.03
2017-09-06T00:29:47.725Z,14.50
2017-09-06T00:32:14.010Z,13.50
2017-09-06T00:34:40.300Z,14.37
2017-09-06T00:37:06.584Z,13.77
2017-09-06T00:39:32.852Z,13.37
2017-09-06T00:41:59.145Z,12.63
2017-09-06T00:44:25.419Z,13.00
2017-09-06T00:46:51.701Z,11.70
2017-09-06T00:49:17.982Z,11.07
2017-09-06T00:51:44.260Z,12.60
2017-09-06T00:54:10.558Z,11.90
2017-09-06T00:56:36.841Z,11.97
2017-09-06T00:59:03.138Z,12.47
2017-09-06T01:01:29.440Z,14.57
2017-09-06T01:03:55.710Z,12.87
2017-09-06T01:06:21.987Z,12.30
2017-09-06T01:08:48.265Z,11.93
2017-09-06T01:11:14.549Z,12.50
2017-09-06T01:13:40.835Z,11.00
2017-09-06T01:16:07.108Z,11.50
2017-09-06T01:18:33.378Z,12.10
2017-09-06T01:20:59.697Z,11.97
2017-09-06T01:23:25.978Z,13.20
2017-09-06T01:25:52.268Z,12.80
2017-09-06T01:28:18.545Z,11.90
2017-09-06T01:30:44.828Z,12.10
2017-09-06T01:33:11.117Z,12.10
2017-09-06T01:35:37.419Z,11.80
2017-09-06T01:38:03.713Z,12.07
2017-09-06T01:40:30.826Z,11.77
2017-09-06T01:42:57.089Z,12.13
2017-09-06T01:45:23.387Z,12.43
2017-09-06T01:47:50.437Z,13.03
2017-09-06T01:50:16.716Z,11.77
2017-09-06T01:52:43.020Z,12.23
2017-09-06T01:55:09.308Z,11.23
2017-09-06T01:57:35.610Z,12.03
2017-09-06T02:00:01.879Z,10.63
2017-09-06T02:02:28.165Z,12.50
2017-09-06T02:04:54.444Z,12.30
2017-09-06T02:07:20.796Z,11.30
2017-09-06T02:09:47.054Z,12.13
2017-09-06T02:12:13.317Z,12.17
2017-09-06T02:14:39.614Z,10.77
2017-09-06T02:17:05.889Z,11.83
2017-09-06T02:19:32.153Z,11.80
2017-09-06T02:21:58.421Z,12.20
2017-09-06T02:24:24.687Z,12.60
2017-09-06T02:26:50.928Z,11.27
2017-09-06T02:29:17.221Z,10.90
2017-09-06T02:31:43.491Z,11.20
2017-09-06T02:34:10.017Z,11.40
2017-09-06T02:36:36.259Z,11.63
2017-09-06T02:39:02.557Z,11.10
2017-09-06T02:41:28.838Z,11.73
2017-09-06T02:43:55.129Z,11.70
2017-09-06T02:46:21.412Z,10.17
2017-09-06T02:48:47.716Z,11.67
2017-09-06T02:51:14.000Z,13.57
2017-09-06T02:53:40.304Z,11.13
2017-09-06T02:56:06.588Z,12.07
2017-09-06T02:58:32.847Z,10.80
2017-09-06T03:00:59.121Z,11.73
2017-09-06T03:03:25.515Z,10.93
2017-09-06T03:05:51.793Z,12.00
2017-09-06T03:08:18.045Z,11.63
2017-09-06T03:10:44.317Z,13.77
2017-09-06T03:13:10.611Z,12.90
2017-09-06T03:15:36.895Z,13.13
2017-09-06T03:18:03.173Z,13.57
2017-09-06T03:20:29.453Z,13.87
2017-09-06T03:22:55.725Z,13.70
2017-09-06T03:25:22.338Z,13.20
2017-09-06T03:27:48.629Z,12.97
2017-09-06T03:30:14.886Z,12.70
2017-09-06T03:32:41.161Z,13.63
2017-09-06T03:35:07.422Z,12.73
2017-09-06T03:37:34.435Z,12.37
2017-09-06T03:40:00.695Z,12.80
2017-09-06T03:42:26.973Z,13.07
2017-09-06T03:44:53.234Z,13.63
2017-09-06T03:47:19.501Z,13.60
2017-09-06T03:49:45.773Z,13.57
2017-09-06T03:52:12.043Z,14.33
2017-09-06T03:54:38.294Z,15.33
2017-09-06T03:57:05.541Z,15.63
2017-09-06T03:59:31.779Z,16.53
2017-09-06T04:01:58.103Z,16.13
2017-09-06T04:04:24.342Z,15.90
2017-09-06T04:06:50.588Z,15.33
2017-09-06T04:09:16.833Z,15.10
2017-09-06T04:11:43.092Z,14.50
2017-09-06T04:14:09.367Z,15.53
2017-09-06T04:16:35.615Z,16.60
2017-09-06T04:19:01.881Z,16.50
2017-09-06T04:21:28.111Z,16.87
2017-09-06T04:23:54.381Z,15.67
2017-09-06T04:26:20.662Z,17.17
2017-09-06T04:28:46.945Z,15.87
2017-09-06T04:31:13.211Z,15.10
2017-09-06T04:33:39.485Z,14.53
2017-09-06T04:36:05.746Z,15.33
2017-09-06T04:38:32.013Z,13.83
2017-09-06T04:40:58.272Z,15.90
2017-09-06T04:43:24.564Z,13.97
2017-09-06T04:45:50.815Z,14.23
2017-09-06T04:48:17.065Z,13.83
2017-09-06T04:50:43.343Z,14.00
2017-09-06T04:53:09.604Z,14.70
2017-09-06T04:55:35.885Z,13.50
2017-09-06T04:58:02.145Z,14.17
2017-09-06T05:00:28.414Z,13.10
2017-09-06T05:02:55.495Z,13.73
2017-09-06T05:05:21.764Z,14.77
2017-09-06T05:07:48.048Z,14.70
2017-09-06T05:10:14.341Z,14.50
2017-09-06T05:12:40.604Z,13.90
2017-09-06T05:15:06.876Z,14.10
2017-09-06T05:17:33.152Z,15.13
2017-09-06T05:19:59.452Z,13.80
2017-09-06T05:22:25.758Z,13.83
2017-09-06T05:24:52.022Z,14.37
2017-09-06T05:27:18.315Z,15.80
2017-09-06T05:29:44.588Z,15.60
2017-09-06T05:32:10.888Z,16.40
2017-09-06T05:34:37.158Z,16.20
2017-09-06T05:37:03.454Z,16.13
2017-09-06T05:39:29.721Z,17.20
2017-09-06T05:41:56.009Z,15.97
2017-09-06T05:44:22.277Z,16.17
2017-09-06T05:46:48.584Z,16.17
2017-09-06T05:51:54.701Z,14.90
2017-09-06T05:54:20.985Z,15.40
2017-09-06T05:56:47.329Z,15.70
2017-09-06T05:59:13.645Z,15.93
2017-09-06T06:01:40.001Z,15.83
2017-09-06T06:04:06.322Z,14.60
2017-09-06T06:06:32.631Z,16.33
2017-09-06T06:08:58.912Z,16.57
2017-09-06T06:11:25.209Z,16.57
2017-09-06T06:13:51.511Z,16.70
2017-09-06T06:16:17.796Z,18.10
2017-09-06T06:18:44.114Z,19.00
2017-09-06T06:21:10.385Z,17.70
2017-09-06T06:23:36.686Z,18.77
2017-09-06T06:26:02.969Z,17.60
2017-09-06T06:28:29.284Z,18.40
2017-09-06T06:30:55.580Z,19.00
2017-09-06T06:33:21.867Z,18.50
2017-09-06T06:35:48.137Z,20.00
2017-09-06T06:38:14.438Z,20.80
2017-09-06T06:40:40.745Z,19.70
2017-09-06T06:43:07.023Z,19.60
2017-09-06T06:45:33.335Z,20.57
2017-09-06T06:47:59.626Z,21.97
2017-09-06T06:50:25.919Z,21.97
2017-09-06T06:52:52.199Z,21.87
2017-09-06T06:55:18.489Z,21.10
2017-09-06T06:57:44.767Z,22.37
2017-09-06T07:00:11.057Z,20.53
2017-09-06T07:02:37.342Z,21.67
2017-09-06T07:05:03.650Z,22.27
2017-09-06T07:07:29.906Z,23.57
2017-09-06T07:09:56.213Z,21.17
2017-09-06T07:12:22.484Z,22.33
2017-09-06T07:14:48.781Z,24.17
2017-09-06T07:17:15.067Z,23.67
2017-09-06T07:19:41.332Z,21.70
2017-09-06T07:22:07.618Z,22.70
2017-09-06T07:24:33.905Z,21.70
2017-09-06T07:27:00.208Z,22.93
2017-09-06T07:29:26.500Z,22.10
2017-09-06T07:31:52.810Z,21.80
2017-09-06T07:34:19.075Z,22.40
2017-09-06T07:36:45.358Z,22.87
2017-09-06T07:39:11.649Z,22.43
2017-09-06T07:41:37.956Z,23.70
2017-09-06T07:44:04.220Z,23.03
2017-09-06T07:46:30.497Z,24.40
2017-09-06T07:48:56.811Z,24.00
2017-09-06T07:51:23.095Z,23.77
2017-09-06T07:53:49.389Z,23.30
2017-09-06T07:56:15.665Z,23.77
2017-09-06T07:58:41.965Z,25.70
2017-09-06T08:01:08.234Z,25.67
2017-09-06T08:03:34.518Z,25.10
2017-09-06T08:06:00.783Z,25.20
2017-09-06T08:08:27.069Z,29.20
2017-09-06T08:10:53.356Z,29.60
2017-09-06T08:13:19.633Z,31.30
2017-09-06T08:15:45.937Z,30.60
2017-09-06T08:18:12.235Z,30.10
2017-09-06T08:20:38.496Z,29.40
2017-09-06T08:23:04.772Z,28.17
2017-09-06T08:25:31.041Z,27.33
2017-09-06T08:27:57.544Z,26.30
2017-09-06T08:30:23.849Z,24.93
2017-09-06T08:32:50.148Z,25.00
2017-09-06T08:35:16.412Z,17.87
2017-09-06T08:37:42.676Z,16.23
2017-09-06T08:40:08.970Z,12.87
2017-09-06T08:42:35.238Z,12.03
2017-09-06T08:45:01.552Z,11.70
2017-09-06T08:47:27.829Z,11.70
2017-09-06T08:49:54.107Z,11.17
2017-09-06T08:52:20.378Z,10.13
2017-09-06T08:54:46.668Z,10.93
2017-09-06T08:57:12.941Z,12.50
2017-09-06T08:59:39.234Z,10.90
2017-09-06T09:02:05.500Z,12.10
2017-09-06T09:04:31.778Z,12.27
2017-09-06T09:06:58.064Z,11.93
2017-09-06T09:09:24.317Z,11.40
2017-09-06T09:11:50.578Z,10.80
2017-09-06T09:14:16.837Z,10.80
2017-09-06T09:16:43.111Z,11.77
2017-09-06T09:19:09.401Z,11.23
2017-09-06T09:21:35.708Z,11.80
2017-09-06T09:24:01.996Z,12.80
2017-09-06T09:26:28.278Z,12.90
2017-09-06T09:28:54.559Z,13.30
2017-09-06T09:31:20.850Z,13.30
2017-09-06T09:33:47.124Z,14.23
2017-09-06T09:36:13.406Z,13.63
2017-09-06T09:38:39.689Z,13.70
2017-09-06T09:41:05.965Z,14.57
2017-09-06T09:43:32.228Z,14.20
2017-09-06T09:45:58.529Z,14.30
2017-09-06T09:48:24.801Z,13.43
2017-09-06T09:50:51.136Z,15.03
2017-09-06T09:53:17.411Z,15.63
2017-09-06T09:55:43.704Z,14.03
2017-09-06T09:58:09.974Z,15.17
2017-09-06T10:00:36.248Z,14.33
2017-09-06T10:03:02.565Z,14.13
2017-09-06T10:05:28.851Z,14.30
2017-09-06T10:07:55.162Z,15.07
2017-09-06T10:10:21.406Z,16.70
2017-09-06T10:12:47.681Z,16.40
2017-09-06T10:15:13.976Z,13.40
2017-09-06T10:17:40.286Z,14.50
2017-09-06T10:20:06.563Z,14.70
2017-09-06T10:22:32.930Z,15.07
2017-09-06T10:24:59.187Z,13.87
2017-09-06T10:27:25.473Z,14.77
2017-09-06T10:29:51.773Z,15.10
2017-09-06T10:32:18.039Z,12.80
2017-09-06T10:34:44.318Z,9.40
2017-09-06T10:37:10.597Z,10.43
2017-09-06T10:39:36.891Z,10.80
2017-09-06T10:42:03.234Z,9.63
2017-09-06T10:44:29.496Z,10.73
2017-09-06T10:46:55.810Z,10.73
2017-09-06T10:49:22.104Z,10.30
2017-09-06T10:51:48.409Z,14.13
2017-09-06T10:54:14.689Z,10.40
2017-09-06T10:56:40.956Z,8.93
2017-09-06T10:59:07.270Z,9.73
2017-09-06T11:01:33.577Z,9.67
2017-09-06T11:03:59.849Z,9.40
2017-09-06T11:06:26.124Z,9.60
2017-09-06T11:08:52.380Z,10.10
2017-09-06T11:11:18.648Z,10.37
2017-09-06T11:13:44.921Z,9.80
2017-09-06T11:16:11.197Z,9.83
2017-09-06T11:18:37.720Z,9.80
2017-09-06T11:21:04.016Z,8.63
2017-09-06T11:23:30.288Z,8.50
2017-09-06T11:25:56.574Z,7.40
2017-09-06T11:28:22.847Z,7.83
2017-09-06T11:30:49.136Z,8.67
2017-09-06T11:33:15.435Z,9.00
2017-09-06T11:35:41.742Z,8.50
2017-09-06T11:38:08.016Z,9.70
2017-09-06T11:40:34.318Z,10.20
2017-09-06T11:43:00.591Z,10.83
2017-09-06T11:45:26.934Z,10.43
2017-09-06T11:47:53.181Z,9.27
2017-09-06T11:50:19.500Z,8.93
2017-09-06T11:52:45.773Z,8.40
2017-09-06T11:55:12.061Z,9.10
2017-09-06T11:57:38.344Z,7.47
2017-09-06T12:00:04.647Z,7.40
2017-09-06T12:02:30.953Z,8.10
2017-09-06T12:04:57.236Z,7.53
2017-09-06T12:07:23.572Z,7.23
2017-09-06T12:09:49.861Z,8.93
2017-09-06T12:12:16.164Z,8.73
2017-09-06T12:14:42.446Z,8.80
2017-09-06T12:17:08.746Z,8.80
2017-09-06T12:19:35.037Z,9.50
2017-09-06T12:22:01.293Z,8.00
2017-09-06T12:24:27.560Z,8.23
2017-09-06T12:26:53.861Z,9.60
2017-09-06T12:29:20.116Z,9.37
2017-09-06T12:31:46.454Z,8.90
2017-09-06T12:34:12.708Z,8.50
2017-09-06T12:36:38.958Z,8.23
2017-09-06T12:39:05.199Z,8.70
2017-09-06T12:41:31.454Z,8.80
2017-09-06T12:43:57.693Z,8.20
2017-09-06T12:46:23.950Z,8.50
2017-09-06T12:48:50.219Z,8.97
2017-09-06T12:51:16.477Z,9.47
2017-09-06T12:53:43.035Z,8.50
2017-09-06T12:56:10.013Z,8.43
2017-09-06T12:58:36.280Z,9.30
2017-09-06T13:01:02.519Z,9.13
2017-09-06T13:03:28.781Z,8.93
2017-09-06T13:05:55.030Z,8.57
2017-09-06T13:08:21.284Z,8.80
2017-09-06T13:10:47.531Z,10.10
2017-09-06T13:13:13.766Z,9.23
2017-09-06T13:15:40.030Z,8.93
2017-09-06T13:18:07.185Z,9.17
2017-09-06T13:20:33.434Z,12.97
2017-09-06T13:22:59.681Z,12.60
2017-09-06T13:25:25.943Z,11.97
2017-09-06T13:27:52.185Z,9.50
2017-09-06T13:30:18.433Z,10.30
2017-09-06T13:32:44.684Z,11.30
2017-09-06T13:35:11.802Z,11.50
2017-09-06T13:37:38.046Z,13.20
2017-09-06T13:40:04.295Z,13.60
2017-09-06T13:42:30.563Z,13.60
2017-09-06T13:44:56.807Z,14.10
2017-09-06T13:47:23.814Z,14.70
2017-09-06T13:49:50.068Z,14.33
2017-09-06T13:52:16.329Z,13.30
2017-09-06T13:54:42.570Z,13.23
2017-09-06T13:57:08.826Z,14.70
2017-09-06T13:59:35.069Z,13.90
2017-09-06T14:02:01.336Z,15.23
2017-09-06T14:04:27.577Z,16.33
2017-09-06T14:06:53.838Z,15.93
2017-09-06T14:09:20.085Z,16.93
2017-09-06T14:11:46.343Z,17.27
2017-09-06T14:14:12.609Z,16.10
2017-09-06T14:16:38.851Z,18.30
2017-09-06T14:19:05.109Z,15.33
2017-09-06T14:21:31.365Z,17.70
2017-09-06T14:23:57.654Z,17.83
2017-09-06T14:26:23.900Z,16.93
2017-09-06T14:28:50.162Z,18.27
2017-09-06T14:31:16.395Z,15.30
2017-09-06T14:33:42.684Z,13.97
2017-09-06T14:36:08.981Z,14.37
2017-09-06T14:38:35.220Z,13.70
2017-09-06T14:41:01.466Z,12.50
2017-09-06T14:43:27.726Z,10.67
2017-09-06T14:45:53.977Z,8.10
2017-09-06T14:48:20.265Z,6.30
2017-09-06T14:50:47.736Z,5.33
2017-09-06T14:53:13.983Z,6.40
2017-09-06T14:55:40.247Z,6.20
2017-09-06T14:58:06.492Z,6.00
2017-09-06T15:00:32.754Z,6.30
2017-09-06T15:02:58.981Z,6.33
2017-09-06T15:05:25.239Z,6.40
2017-09-06T15:07:51.469Z,6.17
2017-09-06T15:10:17.740Z,7.23
2017-09-06T15:12:44.034Z,8.43
2017-09-06T15:15:10.296Z,9.97
2017-09-06T15:17:36.533Z,11.47
2017-09-06T15:20:02.824Z,10.60
2017-09-06T15:22:29.057Z,8.87
2017-09-06T15:24:55.306Z,6.70
2017-09-06T15:27:21.564Z,6.03
2017-09-06T15:29:47.808Z,7.30
2017-09-06T15:32:14.051Z,4.60
2017-09-06T15:34:40.298Z,3.27
2017-09-06T15:37:06.540Z,2.13
2017-09-06T15:39:32.786Z,2.80
2017-09-06T15:41:59.012Z,2.30
2017-09-06T15:44:25.285Z,1.30
2017-09-06T15:46:51.532Z,3.10
2017-09-06T15:49:17.760Z,1.10
2017-09-06T15:51:44.033Z,1.20
2017-09-06T15:54:10.265Z,0.90
2017-09-06T15:56:36.515Z,2.13
2017-09-06T15:59:02.754Z,1.27
2017-09-06T16:01:29.856Z,1.73
2017-09-06T16:03:56.102Z,2.40
2017-09-06T16:06:22.361Z,1.47
2017-09-06T16:08:48.603Z,1.30
2017-09-06T16:11:14.854Z,1.37
2017-09-06T16:13:41.142Z,1.27
2017-09-06T16:16:07.406Z,1.93
2017-09-06T16:18:33.690Z,1.40
2017-09-06T16:20:59.957Z,1.50
2017-09-06T16:23:26.237Z,0.90
2017-09-06T16:25:52.533Z,3.00
2017-09-06T16:28:18.807Z,2.57
2017-09-06T16:30:45.070Z,1.70
2017-09-06T16:33:11.353Z,2.50
2017-09-06T16:35:37.624Z,1.73
2017-09-06T16:38:03.915Z,1.80
2017-09-06T16:40:30.198Z,1.70
2017-09-06T16:42:56.490Z,3.43
2017-09-06T16:45:22.792Z,1.87
2017-09-06T16:47:49.067Z,1.93
2017-09-06T16:50:15.341Z,2.80
2017-09-06T16:52:41.617Z,2.50
2017-09-06T16:55:07.897Z,1.50
2017-09-06T16:57:34.189Z,1.47
2017-09-06T17:00:00.466Z,2.90
2017-09-06T17:02:26.734Z,4.17
2017-09-06T17:04:53.008Z,2.40
2017-09-06T17:07:19.282Z,3.20
2017-09-06T17:09:45.545Z,2.60
2017-09-06T17:12:11.822Z,6.00
2017-09-06T17:14:38.100Z,1.63
2017-09-06T17:17:04.391Z,3.47
2017-09-06T17:19:30.708Z,4.80
2017-09-06T17:21:56.981Z,4.00
2017-09-06T17:24:23.269Z,4.30
2017-09-06T17:26:49.547Z,3.53
2017-09-06T17:29:15.857Z,6.07
2017-09-06T17:31:42.127Z,2.07
2017-09-06T17:34:08.415Z,3.13
2017-09-06T17:36:34.692Z,2.00
2017-09-06T17:39:00.965Z,3.67
2017-09-06T17:41:27.286Z,2.20
2017-09-06T17:43:53.552Z,2.60
2017-09-06T17:46:19.838Z,3.00
2017-09-06T17:48:46.089Z,2.50
2017-09-06T17:51:12.419Z,1.97
2017-09-06T17:53:38.820Z,1.97
2017-09-06T17:56:05.122Z,2.07
2017-09-06T17:58:31.461Z,2.70
2017-09-06T18:00:57.833Z,3.40
2017-09-06T18:03:24.127Z,3.57
2017-09-06T18:05:50.440Z,2.07
2017-09-06T18:08:16.853Z,5.07
2017-09-06T18:10:43.154Z,3.40
2017-09-06T18:13:09.426Z,7.70
2017-09-06T18:15:35.774Z,2.80
2017-09-06T18:18:02.198Z,5.00
2017-09-06T18:20:28.456Z,3.10
2017-09-06T18:22:54.765Z,4.47
2017-09-06T18:25:21.081Z,2.73
2017-09-06T18:27:47.391Z,5.13
2017-09-06T18:30:13.648Z,3.80
2017-09-06T18:32:39.900Z,5.17
2017-09-06T18:35:06.175Z,3.70
2017-09-06T18:37:32.605Z,5.03
2017-09-06T18:39:59.044Z,6.30
2017-09-06T18:42:25.401Z,2.83
2017-09-06T18:44:52.264Z,5.43
2017-09-06T18:47:18.836Z,6.67
2017-09-06T18:49:45.139Z,4.40
2017-09-06T18:52:11.656Z,5.63
2017-09-06T18:54:37.964Z,6.83
2017-09-06T18:57:04.369Z,5.70
2017-09-06T18:59:30.817Z,4.40
2017-09-06T19:01:57.135Z,4.00
2017-09-06T19:04:23.734Z,4.40
2017-09-06T19:06:50.244Z,7.30
2017-09-06T19:09:17.408Z,4.97
2017-09-06T19:11:43.739Z,8.37
2017-09-06T19:14:10.027Z,3.90
2017-09-06T19:16:36.294Z,5.30
2017-09-06T19:19:02.593Z,7.80
2017-09-06T19:21:28.849Z,6.90
2017-09-06T19:23:55.162Z,7.10
2017-09-06T19:26:21.448Z,5.90
2017-09-06T19:28:47.813Z,6.33
2017-09-06T19:31:14.287Z,6.10
2017-09-06T19:33:40.565Z,8.70
2017-09-06T19:36:06.840Z,6.90
2017-09-06T19:38:33.114Z,8.10
2017-09-06T19:40:59.430Z,9.77
2017-09-06T19:43:25.760Z,6.30
2017-09-06T19:45:52.017Z,8.33
2017-09-06T19:48:18.449Z,7.83
2017-09-06T19:50:44.767Z,7.60
2017-09-06T19:53:11.079Z,8.67
2017-09-06T19:55:37.382Z,6.23
2017-09-06T19:58:03.648Z,7.53
2017-09-06T20:00:29.945Z,12.77
2017-09-06T20:02:57.087Z,9.73
2017-09-06T20:05:23.435Z,4.70
2017-09-06T20:07:49.950Z,7.23
2017-09-06T20:10:16.265Z,7.23
2017-09-06T20:12:42.650Z,10.63
2017-09-06T20:15:08.946Z,10.63
2017-09-06T20:17:35.210Z,12.63
2017-09-06T20:20:01.471Z,9.50
2017-09-06T20:22:27.761Z,9.60
2017-09-06T20:24:54.086Z,10.73
2017-09-06T20:27:20.390Z,6.97
2017-09-06T20:29:46.642Z,9.63
2017-09-06T20:32:12.919Z,5.73
2017-09-06T20:34:39.954Z,7.33
2017-09-06T20:37:06.227Z,13.10
2017-09-06T20:39:32.506Z,8.87
2017-09-06T20:41:59.068Z,7.67
2017-09-06T20:44:25.353Z,9.00
2017-09-06T20:46:51.632Z,6.00
2017-09-06T20:49:17.899Z,8.67
2017-09-06T20:51:44.168Z,8.10
2017-09-06T20:54:10.434Z,7.97
2017-09-06T20:56:36.696Z,7.30
2017-09-06T20:59:02.964Z,8.03
2017-09-06T21:01:29.216Z,7.23
2017-09-06T21:03:55.488Z,8.23
2017-09-06T21:06:21.741Z,10.37
2017-09-06T21:08:48.030Z,12.50
2017-09-06T21:11:14.291Z,10.03
2017-09-06T21:13:40.541Z,8.13
2017-09-06T21:16:06.811Z,9.63
2017-09-06T21:18:33.066Z,9.60
2017-09-06T21:20:59.330Z,8.77
2017-09-06T21:23:25.586Z,8.37
2017-09-06T21:25:51.851Z,6.97
2017-09-06T21:28:18.762Z,7.50
2017-09-06T21:30:45.064Z,7.33
2017-09-06T21:33:11.313Z,6.07
2017-09-06T21:35:37.596Z,11.33
2017-09-06T21:38:03.865Z,7.30
2017-09-06T21:40:30.931Z,7.43
2017-09-06T21:42:57.184Z,8.33
2017-09-06T21:45:23.452Z,11.43
2017-09-06T21:47:50.677Z,8.20
2017-09-06T21:50:16.941Z,7.27
2017-09-06T21:52:44.188Z,8.40
2017-09-06T21:55:10.466Z,7.77
2017-09-06T21:57:36.724Z,7.10
2017-09-06T22:00:03.008Z,10.90
2017-09-06T22:02:29.291Z,9.03
2017-09-06T22:04:55.545Z,5.00
2017-09-06T22:07:21.828Z,9.00
2017-09-06T22:09:48.078Z,8.37
2017-09-06T22:12:14.337Z,5.43
2017-09-06T22:14:40.592Z,5.13
2017-09-06T22:17:06.877Z,8.80
2017-09-06T22:19:33.132Z,6.83
2017-09-06T22:21:59.389Z,8.00
2017-09-06T22:24:25.646Z,7.83
2017-09-06T22:26:51.932Z,8.93
2017-09-06T22:29:18.239Z,6.80
2017-09-06T22:31:44.553Z,5.10
2017-09-06T22:34:10.821Z,4.70
2017-09-06T22:36:37.082Z,10.40
2017-09-06T22:39:03.405Z,6.33
2017-09-06T22:41:29.718Z,6.30
2017-09-06T22:43:55.988Z,7.10
2017-09-06T22:46:22.249Z,5.90
2017-09-06T22:48:48.529Z,5.57
2017-09-06T22:51:14.795Z,4.93
2017-09-06T22:53:41.066Z,8.53
2017-09-06T22:56:07.331Z,7.57
2017-09-06T22:58:33.601Z,4.77
2017-09-06T23:00:59.873Z,7.00
2017-09-06T23:03:26.142Z,6.43
2017-09-06T23:05:52.408Z,7.63
2017-09-06T23:08:18.705Z,7.40
2017-09-06T23:10:44.977Z,6.73
2017-09-06T23:13:11.225Z,6.30
2017-09-06T23:15:37.496Z,8.20
2017-09-06T23:18:03.789Z,4.97
2017-09-06T23:20:30.061Z,6.17
2017-09-06T23:22:56.320Z,6.20
2017-09-06T23:25:22.565Z,9.47
2017-09-06T23:27:48.812Z,5.13
2017-09-06T23:30:15.082Z,6.23
2017-09-06T23:32:41.339Z,7.80
2017-09-06T23:35:07.606Z,6.97
2017-09-06T23:37:33.890Z,7.50
2017-09-06T23:40:00.178Z,6.63
2017-09-06T23:42:26.445Z,22.07
2017-09-06T23:44:52.694Z,5.73
2017-09-06T23:47:18.981Z,8.37
2017-09-06T23:49:45.245Z,9.20
2017-09-06T23:52:11.500Z,8.50
2017-09-06T23:54:37.740Z,7.93
2017-09-06T23:57:04.021Z,6.33
2017-09-06T23:59:30.259Z,6.17
